Myron N — P3YN8 — position and weather

sailwx.info

Track history (hours):
 
Tides and Currents Weather Stations Pressure Air Temp Water Temp Dewpoint Dewpoint Depression Visibility Wind Speed Wind Dir Waves Ship Positions

Myron N

Last reported at 2015-Jan-24 17:15 UTC. Time now 2015-May-28 06:09 UTC.
Position N 01°55' E 102°20'.
Warning: this ship's position is months out of date.

Length 230 m; draft 14 m.

Type: Cargo ship. MMSI: 210590000.

Date/timePositionNaut miles runAvg speedWind from/ knotsBaromVisibWave heightAir tempDewpointWater temp
2015-Jan-24 17:15N 01°55' E 102°20'910.9
2015-Jan-24 16:27N 01°51' E 102°28'1210.3
2015-Jan-24 15:18N 01°45' E 102°38'7911.7
2015-Jan-24 08:31N 01°11' E 103°50'10 9.9
2015-Jan-24 07:33N 01°15' E 103°59'2 1.5
2015-Jan-24 06:04N 01°17' E 103°60'0 0.0
2015-Jan-24 03:30N 01°17' E 103°60'0 0.0
2015-Jan-24 02:16N 01°17' E 103°60'0 0.0
2015-Jan-24 01:04N 01°17' E 103°60'0 0.1
2015-Jan-24 00:28N 01°17' E 103°60'0 0.0
2015-Jan-23 22:10N 01°17' E 103°60'0 0.0
2015-Jan-23 21:28N 01°17' E 103°60'0 0.0
2015-Jan-23 19:16N 01°17' E 103°60'0 0.0
2015-Jan-23 18:06N 01°17' E 103°60'0 0.0
2015-Jan-23 17:28N 01°17' E 103°60'0 0.0
2015-Jan-23 16:16N 01°17' E 103°60'0 0.1
2015-Jan-23 14:16N 01°17' E 103°60'1 0.3
2015-Jan-23 11:27N 01°16' E 103°60'3 2.8
2015-Jan-23 10:33N 01°16' E 104°02'  
Track history (hours):
 
Tides and Currents Weather Stations Pressure Air Temp Water Temp Dewpoint Dewpoint Depression Visibility Wind Speed Wind Dir Waves Ship Positions

Myron N

Last reported at 2015-Jan-24 17:15 UTC. Time now 2015-May-28 06:09 UTC.
Position N 01°55' E 102°20'.
Warning: this ship's position is months out of date.

Length 230 m; draft 14 m.

Type: Cargo ship. MMSI: 210590000.

Date/timePositionNaut miles runAvg speedWind from/ knotsBaromVisibWave heightAir tempDewpointWater temp
2015-Jan-24 17:15N 01°55' E 102°20'910.9
2015-Jan-24 16:27N 01°51' E 102°28'1210.3
2015-Jan-24 15:18N 01°45' E 102°38'7911.7
2015-Jan-24 08:31N 01°11' E 103°50'10 9.9
2015-Jan-24 07:33N 01°15' E 103°59'2 1.5
2015-Jan-24 06:04N 01°17' E 103°60'0 0.0
2015-Jan-24 03:30N 01°17' E 103°60'0 0.0
2015-Jan-24 02:16N 01°17' E 103°60'0 0.0
2015-Jan-24 01:04N 01°17' E 103°60'0 0.1
2015-Jan-24 00:28N 01°17' E 103°60'0 0.0
2015-Jan-23 22:10N 01°17' E 103°60'0 0.0
2015-Jan-23 21:28N 01°17' E 103°60'0 0.0
2015-Jan-23 19:16N 01°17' E 103°60'0 0.0
2015-Jan-23 18:06N 01°17' E 103°60'0 0.0
2015-Jan-23 17:28N 01°17' E 103°60'0 0.0
2015-Jan-23 16:16N 01°17' E 103°60'0 0.1
2015-Jan-23 14:16N 01°17' E 103°60'1 0.3
2015-Jan-23 11:27N 01°16' E 103°60'3 2.8
2015-Jan-23 10:33N 01°16' E 104°02'  

Dump ship's entire track history